Westville, IN

6:27 AM CST on December 03, 2016 (GMT -0600)
APRSWXNET | | Change Station

Elev 787 ft 41.52 °N, 86.95 °W | Updated 27 minutes ago

Overcast
Overcast
33 °F
Feels Like 33 °F
N
0
Wind Variable Wind from West
Gusts 6.0 mph

Today
High -- | Low -- °F
--% Chance of Precip.
Yesterday
High -- | Low -- °F
Precip. -- in
Pressure 30.37 in
Visibility 10.0 miles
Clouds Overcast 3500 ft
Windchill 33 °F
Dew Point 25 °F
Humidity 71%
Rainfall in
Snow Depth Not available.
6:57 AM 4:17 PM
Waxing Crescent, 14% visible
METAR KVPZ 031156Z AUTO 28008KT 10SM OVC035 01/M05 A3035 RMK AO2 SLP284 T00061050 10022 20006 51007 TSNO $
Pressure 30.37 in
Visibility 10.0 miles
Clouds Overcast 3500 ft
Windchill 33 °F
Dew Point 25 °F
Humidity 71%
Rainfall in
Snow Depth Not available.
6:57 AM 4:17 PM
Waxing Crescent, 14% visible
METAR KVPZ 031156Z AUTO 28008KT 10SM OVC035 01/M05 A3035 RMK AO2 SLP284 T00061050 10022 20006 51007 TSNO $

10-Day Weather Forecast

Almanac

Astronomy

Dec. 03, 2016 Rise Set
Actual Time
Civil Twilight
Nautical Twilight
Astronomical Twilight
Moon
Length of Visible Light
Length of Day
Tomorrow will be .
, % of the Moon is Illuminated

Today's Extremes

State Highs State Lows

Community

WunderPhotos

Upload Photos

1,955,441 photos uploaded!

WunderBlog® & News

Nearby

Air Quality

  Air Quality AQ Index Pollutant
Not available.

Snow Depth

Station Depth Elevation

Earthquake Activity

City Distance Mag. Time & Date
Minimum magnitude displayed is 2.5.

Coastal Water Temperatures

Place Temperature

Stations

Nearby Weather Stations

Station Location Temp. Windchill Dew Point Humidity Wind Precip. Elev Updated Type
                   

Watches & Warnings

There are currently no watches in effect.